Time;durP1;ratioP1;P1;durP2;ratioP2;P2;SDS_P1;SDS_P2;PMS_P1;PMS_P2;Temp;Humidity;BMP_temperature;BMP_pressure;BME280_temperature;BME280_humidity;BME280_pressure;Samples;Min_cycle;Max_cycle;Signal;HPM_P1;HPM_P2
2023/08/02 00:02:25;;;;;;;4.93;3.47;;;;;;;14.70;100.00;99962.78;5032386;28;20339;-72
2023/08/02 00:04:50;;;;;;;7.60;3.20;;;;;;;14.68;100.00;99956.72;5035392;28;20040;-72
2023/08/02 00:07:15;;;;;;;6.80;3.08;;;;;;;14.66;100.00;99959.50;5023394;28;20550;-72
2023/08/02 00:09:41;;;;;;;7.90;3.30;;;;;;;14.66;100.00;99948.78;5034680;28;20525;-72
2023/08/02 00:12:06;;;;;;;5.90;3.17;;;;;;;14.61;100.00;99951.00;5033172;28;20055;-71
2023/08/02 00:14:32;;;;;;;6.15;2.90;;;;;;;14.55;100.00;99969.41;5027595;28;20479;-72
2023/08/02 00:16:57;;;;;;;7.03;3.55;;;;;;;14.50;100.00;99955.53;5029323;28;20067;-72
2023/08/02 00:19:22;;;;;;;5.40;2.97;;;;;;;14.48;100.00;99954.78;5040357;28;20036;-72
2023/08/02 00:21:48;;;;;;;7.53;2.75;;;;;;;14.44;100.00;99951.50;5034299;28;20029;-72
2023/08/02 00:24:13;;;;;;;4.47;2.90;;;;;;;14.40;100.00;99958.06;5034562;28;20029;-72
2023/08/02 00:26:39;;;;;;;5.97;3.20;;;;;;;14.37;100.00;99961.84;5024194;28;20029;-72
2023/08/02 00:29:04;;;;;;;8.23;3.38;;;;;;;14.34;100.00;99954.06;5035915;28;20021;-72
2023/08/02 00:31:29;;;;;;;6.72;3.58;;;;;;;14.34;100.00;99959.44;5028151;28;20029;-72
2023/08/02 00:33:55;;;;;;;6.60;3.00;;;;;;;14.34;100.00;99947.88;5027217;28;20024;-71
2023/08/02 00:36:20;;;;;;;4.85;3.10;;;;;;;14.42;100.00;99945.41;5049331;28;20017;-72
2023/08/02 00:38:45;;;;;;;6.43;3.00;;;;;;;14.49;100.00;99951.16;5056624;28;20257;-72
2023/08/02 00:41:11;;;;;;;4.53;2.70;;;;;;;14.52;100.00;99945.56;5046949;28;20384;-72
2023/08/02 00:43:41;;;;;;;5.07;3.03;;;;;;;14.59;100.00;99938.69;5046234;28;20049;-72
2023/08/02 00:46:15;;;;;;;8.40;3.15;;;;;;;14.61;100.00;99931.41;5023838;28;20026;-72
2023/08/02 00:48:42;;;;;;;6.97;2.65;;;;;;;14.68;100.00;99929.94;5020819;28;20144;-71
2023/08/02 00:51:12;;;;;;;5.53;3.03;;;;;;;14.73;100.00;99919.69;5022202;28;20385;-72
2023/08/02 00:53:37;;;;;;;4.25;2.67;;;;;;;14.76;100.00;99908.72;5038752;28;20051;-72
2023/08/02 00:56:03;;;;;;;7.15;2.85;;;;;;;14.76;100.00;99902.53;5017916;28;20095;-72
2023/08/02 00:58:28;;;;;;;6.60;3.22;;;;;;;14.79;100.00;99897.72;5029732;28;20055;-72
2023/08/02 01:00:54;;;;;;;5.03;2.80;;;;;;;14.82;100.00;99905.53;5026132;28;20033;-72
2023/08/02 01:03:19;;;;;;;4.45;2.65;;;;;;;14.83;100.00;99901.00;5049647;28;20037;-72
2023/08/02 01:05:55;;;;;;;6.28;2.97;;;;;;;14.85;100.00;99899.06;5026214;28;20031;-72
2023/08/02 01:08:35;;;;;;;6.95;3.00;;;;;;;14.80;100.00;99886.06;5011654;28;20067;-72
2023/08/02 01:11:06;;;;;;;5.50;3.40;;;;;;;14.90;100.00;99902.22;5021632;28;20033;-72
2023/08/02 01:13:35;;;;;;;6.15;3.22;;;;;;;14.87;100.00;99897.09;5023272;28;20029;-72
2023/08/02 01:16:02;;;;;;;7.47;3.30;;;;;;;14.88;100.00;99897.00;5029288;28;20028;-72
2023/08/02 01:18:27;;;;;;;5.13;3.00;;;;;;;14.93;100.00;99896.59;5025705;28;20033;-72
2023/08/02 01:20:53;;;;;;;10.52;3.78;;;;;;;14.89;100.00;99917.44;5025023;28;20510;-72
2023/08/02 01:23:19;;;;;;;7.35;2.95;;;;;;;14.92;100.00;99911.81;5030010;28;20076;-71
2023/08/02 01:25:46;;;;;;;5.97;3.30;;;;;;;14.91;100.00;99899.38;5030025;28;20029;-71
2023/08/02 01:28:19;;;;;;;6.50;3.25;;;;;;;14.94;100.00;99899.13;5019660;28;20076;-72
2023/08/02 01:30:46;;;;;;;11.05;3.42;;;;;;;14.91;100.00;99880.63;5023612;28;20021;-70
2023/08/02 01:33:12;;;;;;;6.53;3.17;;;;;;;14.95;100.00;99887.44;5026093;28;20033;-70
2023/08/02 01:35:38;;;;;;;7.43;3.55;;;;;;;14.99;100.00;99885.34;5027791;28;20029;-71
2023/08/02 01:38:04;;;;;;;8.43;3.50;;;;;;;14.99;100.00;99879.16;5027099;28;20089;-71
2023/08/02 01:40:30;;;;;;;6.45;3.53;;;;;;;15.00;100.00;99884.38;5026676;28;20041;-71
2023/08/02 01:42:55;;;;;;;10.60;3.58;;;;;;;15.02;100.00;99873.53;5022504;28;20237;-71
2023/08/02 01:45:21;;;;;;;6.15;3.13;;;;;;;15.02;100.00;99869.03;5031306;28;20025;-71
2023/08/02 01:47:47;;;;;;;7.25;3.25;;;;;;;15.02;100.00;99857.47;5021966;28;20073;-71
2023/08/02 01:50:12;;;;;;;5.60;3.05;;;;;;;14.99;100.00;99847.84;5026692;28;20033;-70
2023/08/02 01:52:38;;;;;;;5.32;3.17;;;;;;;15.03;100.00;99860.00;5022204;28;20498;-71
2023/08/02 01:55:04;;;;;;;5.75;3.38;;;;;;;15.09;100.00;99853.25;5030436;28;20033;-70
2023/08/02 01:57:29;;;;;;;8.02;3.60;;;;;;;15.08;100.00;99854.25;5022320;28;20031;-71
2023/08/02 01:59:54;;;;;;;8.75;3.83;;;;;;;15.08;100.00;99844.38;5022393;28;20256;-71
2023/08/02 02:02:20;;;;;;;7.57;3.55;;;;;;;15.08;100.00;99847.03;5029065;28;20094;-71
2023/08/02 02:04:45;;;;;;;9.18;4.03;;;;;;;15.09;100.00;99826.44;5025340;28;20106;-70
2023/08/02 02:07:10;;;;;;;6.75;3.42;;;;;;;15.09;100.00;99831.81;5027994;28;20039;-71
2023/08/02 02:09:36;;;;;;;6.30;3.33;;;;;;;15.09;100.00;99832.69;5029752;28;20032;-72
2023/08/02 02:12:01;;;;;;;6.68;3.60;;;;;;;15.09;100.00;99816.59;5016250;28;20029;-71
2023/08/02 02:14:26;;;;;;;7.88;3.90;;;;;;;15.08;100.00;99800.63;5032980;28;20032;-71
2023/08/02 02:16:52;;;;;;;7.40;3.53;;;;;;;15.11;100.00;99809.28;5028375;28;20034;-71
2023/08/02 02:19:17;;;;;;;6.93;3.67;;;;;;;15.11;100.00;99806.59;5029753;28;20044;-71
2023/08/02 02:21:43;;;;;;;6.70;3.25;;;;;;;15.12;100.00;99792.19;5025103;28;20797;-72
2023/08/02 02:24:08;;;;;;;8.30;3.67;;;;;;;15.14;100.00;99784.88;5034080;28;20595;-72
2023/08/02 02:26:34;;;;;;;6.10;3.53;;;;;;;15.13;100.00;99777.84;5034378;28;20067;-71
2023/08/02 02:28:59;;;;;;;6.68;3.70;;;;;;;15.11;100.00;99768.22;5032519;28;20264;-72
2023/08/02 02:31:24;;;;;;;9.25;3.63;;;;;;;15.12;100.00;99762.72;5031208;28;20032;-72
2023/08/02 02:33:50;;;;;;;6.68;3.50;;;;;;;15.12;100.00;99745.78;5040959;28;20040;-71
2023/08/02 02:36:15;;;;;;;6.32;3.47;;;;;;;15.12;100.00;99752.00;5030112;28;20032;-72
2023/08/02 02:38:40;;;;;;;7.43;3.15;;;;;;;15.11;100.00;99749.47;5026568;28;20068;-72
2023/08/02 02:41:06;;;;;;;6.13;3.25;;;;;;;15.09;100.00;99748.72;5031970;28;20100;-71
2023/08/02 02:43:31;;;;;;;9.50;3.33;;;;;;;15.10;100.00;99734.38;5034274;28;20466;-72
2023/08/02 02:45:56;;;;;;;5.90;3.20;;;;;;;15.10;100.00;99732.53;5024309;28;20031;-72
2023/08/02 02:48:22;;;;;;;9.25;3.60;;;;;;;15.05;100.00;99734.78;5036562;28;20433;-72
2023/08/02 02:50:48;;;;;;;5.53;3.22;;;;;;;15.10;100.00;99737.06;5039401;28;20405;-72
2023/08/02 02:53:13;;;;;;;6.65;3.17;;;;;;;15.09;100.00;99746.06;5033782;28;20036;-72
2023/08/02 02:55:38;;;;;;;7.93;3.53;;;;;;;15.10;100.00;99742.41;5032779;28;20039;-72
2023/08/02 02:58:07;;;;;;;6.60;3.40;;;;;;;15.08;100.00;99749.72;5036391;28;20040;-71
2023/08/02 03:00:32;;;;;;;7.05;3.00;;;;;;;15.06;100.00;99749.03;5024543;28;20044;-72
2023/08/02 03:02:58;;;;;;;8.50;3.55;;;;;;;15.07;100.00;99737.31;5025295;28;20021;-72
2023/08/02 03:05:23;;;;;;;6.07;3.65;;;;;;;15.07;100.00;99731.94;5025536;28;20716;-72
2023/08/02 03:07:48;;;;;;;7.28;3.70;;;;;;;15.04;100.00;99730.38;5025369;28;20037;-71
2023/08/02 03:10:14;;;;;;;5.93;3.67;;;;;;;15.02;100.00;99723.47;5028919;28;20070;-71
2023/08/02 03:12:39;;;;;;;5.07;3.30;;;;;;;14.97;100.00;99713.16;5027648;28;20488;-71
2023/08/02 03:15:05;;;;;;;6.68;3.67;;;;;;;14.95;100.00;99691.84;5024242;28;20467;-71
2023/08/02 03:17:31;;;;;;;5.13;3.40;;;;;;;14.92;100.00;99672.50;5032658;28;20033;-71
2023/08/02 03:19:56;;;;;;;5.13;3.38;;;;;;;14.90;100.00;99671.78;5022474;28;20112;-71
2023/08/02 03:22:22;;;;;;;5.30;3.55;;;;;;;14.89;100.00;99662.06;5030543;28;20037;-71
2023/08/02 03:24:47;;;;;;;7.10;3.70;;;;;;;14.89;100.00;99646.84;5026461;28;20028;-71
2023/08/02 03:27:12;;;;;;;5.50;3.50;;;;;;;14.86;100.00;99648.94;5029555;28;20033;-71
2023/08/02 03:29:38;;;;;;;7.03;3.88;;;;;;;14.82;100.00;99656.38;5027622;28;20117;-71
2023/08/02 03:32:04;;;;;;;6.40;3.85;;;;;;;14.84;100.00;99643.72;5023581;28;20037;-71
2023/08/02 03:34:29;;;;;;;6.93;4.22;;;;;;;14.84;100.00;99646.41;5035234;28;20033;-72
2023/08/02 03:36:54;;;;;;;5.35;3.67;;;;;;;14.84;100.00;99656.25;5028493;28;20025;-71
2023/08/02 03:39:20;;;;;;;7.40;3.80;;;;;;;14.83;100.00;99658.06;5038050;28;20033;-71
2023/08/02 03:41:45;;;;;;;7.68;4.07;;;;;;;14.85;100.00;99661.50;5029797;28;20151;-71
2023/08/02 03:44:11;;;;;;;5.88;4.03;;;;;;;14.86;100.00;99633.72;5036703;28;20032;-71
2023/08/02 03:46:36;;;;;;;5.47;4.38;;;;;;;14.85;100.00;99633.84;5026728;28;20036;-71
2023/08/02 03:49:01;;;;;;;7.72;4.22;;;;;;;14.86;100.00;99631.03;5033169;28;20491;-71
2023/08/02 03:51:27;;;;;;;7.90;4.72;;;;;;;14.85;100.00;99615.09;5028710;28;20024;-72
2023/08/02 03:53:52;;;;;;;7.63;4.50;;;;;;;14.83;100.00;99617.06;5026145;28;20041;-71
2023/08/02 03:56:18;;;;;;;7.93;4.18;;;;;;;14.80;100.00;99612.84;5031075;28;20475;-72
2023/08/02 03:58:43;;;;;;;8.93;4.28;;;;;;;14.80;100.00;99614.66;5020713;28;20512;-72
2023/08/02 04:01:09;;;;;;;6.32;4.25;;;;;;;14.77;100.00;99604.22;5027393;28;20040;-72
2023/08/02 04:03:34;;;;;;;8.13;5.05;;;;;;;14.73;100.00;99590.25;5023814;28;20087;-71
2023/08/02 04:05:59;;;;;;;9.80;4.82;;;;;;;14.77;100.00;99596.19;5024089;28;20037;-71
2023/08/02 04:08:25;;;;;;;7.53;4.45;;;;;;;14.76;100.00;99573.91;5036154;28;20021;-71
2023/08/02 04:10:50;;;;;;;8.05;4.95;;;;;;;14.75;100.00;99566.84;5030538;28;20025;-72
2023/08/02 04:13:15;;;;;;;7.00;4.85;;;;;;;14.76;100.00;99567.72;5035645;28;20108;-72
2023/08/02 04:15:41;;;;;;;6.93;4.85;;;;;;;14.74;100.00;99562.47;5026413;28;20343;-72
2023/08/02 04:18:06;;;;;;;11.10;4.85;;;;;;;14.75;100.00;99550.75;5029068;28;20563;-71
2023/08/02 04:20:36;;;;;;;7.35;4.72;;;;;;;14.75;100.00;99555.28;5031486;28;20093;-71
2023/08/02 04:23:02;;;;;;;7.90;4.65;;;;;;;14.72;100.00;99547.53;5031977;28;20029;-72
2023/08/02 04:25:27;;;;;;;7.30;4.88;;;;;;;14.70;100.00;99539.63;5024522;28;20541;-71
2023/08/02 04:27:53;;;;;;;7.40;5.20;;;;;;;14.71;100.00;99535.94;5040261;28;20032;-71
2023/08/02 04:30:18;;;;;;;7.72;5.05;;;;;;;14.70;100.00;99523.53;5031655;28;20030;-72
2023/08/02 04:32:43;;;;;;;8.85;4.85;;;;;;;14.69;100.00;99514.66;5020299;28;20021;-71
2023/08/02 04:35:09;;;;;;;7.03;4.65;;;;;;;14.70;100.00;99502.13;5023796;28;20222;-72
2023/08/02 04:37:35;;;;;;;9.15;5.20;;;;;;;14.74;100.00;99503.53;5035410;28;20455;-72
2023/08/02 04:40:00;;;;;;;7.32;5.10;;;;;;;14.76;100.00;99500.75;5022931;28;20032;-72
2023/08/02 04:42:26;;;;;;;8.00;5.00;;;;;;;14.79;100.00;99498.63;5022775;28;20407;-72
2023/08/02 04:44:51;;;;;;;6.93;4.85;;;;;;;14.78;100.00;99488.88;5022237;28;20111;-71
2023/08/02 04:47:17;;;;;;;9.52;5.25;;;;;;;14.80;100.00;99484.25;5023753;28;20025;-71
2023/08/02 04:49:42;;;;;;;6.47;4.72;;;;;;;14.80;100.00;99468.19;5019095;28;20044;-72
2023/08/02 04:52:07;;;;;;;9.07;5.38;;;;;;;14.84;100.00;99458.88;5029767;28;20024;-71
2023/08/02 04:54:33;;;;;;;6.22;4.90;;;;;;;14.84;100.00;99448.19;5029006;28;20041;-71
2023/08/02 04:56:59;;;;;;;7.22;4.90;;;;;;;14.85;100.00;99444.50;5031851;28;20534;-71
2023/08/02 04:59:24;;;;;;;7.65;5.20;;;;;;;14.89;100.00;99445.91;5021962;28;20033;-71
2023/08/02 05:01:50;;;;;;;6.93;4.88;;;;;;;14.90;100.00;99442.25;5022656;28;20066;-72
2023/08/02 05:04:15;;;;;;;8.10;5.05;;;;;;;14.94;100.00;99448.19;5010711;28;20404;-72
2023/08/02 05:06:42;;;;;;;8.43;5.13;;;;;;;14.94;100.00;99426.75;5022330;28;20040;-72
2023/08/02 05:09:08;;;;;;;6.97;5.22;;;;;;;14.86;100.00;99416.72;5022448;28;20037;-71
2023/08/02 05:11:34;;;;;;;8.18;5.45;;;;;;;14.78;100.00;99423.78;5022666;28;20283;-71
2023/08/02 05:13:59;;;;;;;9.18;6.10;;;;;;;14.73;100.00;99426.03;5024820;28;20033;-73
2023/08/02 05:16:26;;;;;;;10.68;6.10;;;;;;;14.63;100.00;99415.28;5030643;28;20441;-73
2023/08/02 05:18:52;;;;;;;8.35;6.00;;;;;;;14.59;100.00;99417.41;5021586;28;20178;-76
2023/08/02 05:21:19;;;;;;;11.60;6.55;;;;;;;14.56;100.00;99417.69;5025183;28;20652;-75
2023/08/02 05:23:45;;;;;;;8.82;7.10;;;;;;;14.49;100.00;99411.16;5024864;28;20022;-74
2023/08/02 05:26:11;;;;;;;10.20;6.65;;;;;;;14.43;100.00;99395.66;5037150;28;20182;-75
2023/08/02 05:28:37;;;;;;;9.98;6.60;;;;;;;14.43;100.00;99385.78;5026119;28;20540;-75
2023/08/02 05:31:03;;;;;;;8.27;6.82;;;;;;;14.48;100.00;99389.88;5022472;28;20480;-76
2023/08/02 05:33:28;;;;;;;9.05;7.10;;;;;;;14.42;100.00;99386.78;5028152;28;20033;-75
2023/08/02 05:35:54;;;;;;;9.90;6.47;;;;;;;14.44;100.00;99381.25;5021198;28;20041;-77
2023/08/02 05:38:20;;;;;;;10.55;6.35;;;;;;;14.42;100.00;99361.81;5013202;28;20175;-77
2023/08/02 05:40:45;;;;;;;11.00;7.05;;;;;;;14.44;100.00;99352.66;5022894;28;20021;-76
2023/08/02 05:43:11;;;;;;;9.90;7.47;;;;;;;14.32;100.00;99331.53;5023616;28;20044;-76
2023/08/02 05:45:36;;;;;;;8.60;6.65;;;;;;;14.41;100.00;99339.53;5029400;28;20044;-77
2023/08/02 05:48:01;;;;;;;12.02;7.35;;;;;;;14.39;100.00;99336.19;5020264;28;20045;-75
2023/08/02 05:50:29;;;;;;;11.40;7.22;;;;;;;14.37;100.00;99338.13;5030261;28;20040;-75
2023/08/02 05:52:54;;;;;;;10.43;7.35;;;;;;;14.34;100.00;99330.41;5034687;28;20028;-75
2023/08/02 05:55:20;;;;;;;11.68;7.53;;;;;;;14.32;100.00;99318.97;5030078;28;20025;-76
2023/08/02 05:57:45;;;;;;;9.70;7.18;;;;;;;14.41;100.00;99314.63;5031645;28;20036;-76
2023/08/02 06:00:11;;;;;;;9.60;7.00;;;;;;;14.35;100.00;99294.63;5015216;28;20460;-75
2023/08/02 06:02:38;;;;;;;9.68;7.15;;;;;;;14.44;100.00;99299.13;5020565;28;20033;-75
2023/08/02 06:05:04;;;;;;;9.95;6.88;;;;;;;14.41;100.00;99288.69;5017956;28;20399;-75
2023/08/02 06:07:29;;;;;;;7.43;6.35;;;;;;;14.40;100.00;99270.94;5033393;28;20040;-74
2023/08/02 06:09:55;;;;;;;8.57;6.60;;;;;;;14.42;100.00;99268.13;5027232;28;20031;-74
2023/08/02 06:12:20;;;;;;;9.10;6.28;;;;;;;14.36;100.00;99255.31;5026852;28;20041;-74
2023/08/02 06:14:45;;;;;;;8.73;6.05;;;;;;;14.44;100.00;99252.78;5021580;28;20033;-75
2023/08/02 06:17:11;;;;;;;6.95;6.25;;;;;;;14.42;100.00;99239.53;5031920;28;20510;-73
2023/08/02 06:19:36;;;;;;;6.78;5.80;;;;;;;14.36;100.00;99239.25;5019861;28;20021;-74
2023/08/02 06:22:01;;;;;;;11.73;5.93;;;;;;;14.44;100.00;99242.91;5020578;28;20030;-75
2023/08/02 06:24:27;;;;;;;7.00;5.90;;;;;;;14.42;100.00;99231.50;5022057;28;20044;-75
2023/08/02 06:26:52;;;;;;;5.85;4.97;;;;;;;14.42;100.00;99226.16;5025689;28;20033;-74
2023/08/02 06:29:18;;;;;;;6.63;5.85;;;;;;;14.42;100.00;99193.16;5029877;28;20021;-74
2023/08/02 06:31:43;;;;;;;8.77;5.78;;;;;;;14.49;100.00;99212.22;5023100;28;20041;-73
2023/08/02 06:34:09;;;;;;;6.35;5.10;;;;;;;14.52;100.00;99202.09;5030426;28;20336;-73
2023/08/02 06:36:38;;;;;;;7.18;5.05;;;;;;;14.53;100.00;99197.56;5022820;28;20025;-72
2023/08/02 06:39:03;;;;;;;6.55;5.47;;;;;;;14.55;100.00;99191.09;5027951;28;20030;-73
2023/08/02 06:41:29;;;;;;;5.13;4.63;;;;;;;14.55;100.00;99184.91;5026436;28;20049;-73
2023/08/02 06:43:54;;;;;;;6.20;4.90;;;;;;;14.51;100.00;99164.75;5021580;28;20454;-73
2023/08/02 06:46:20;;;;;;;5.47;4.68;;;;;;;14.52;100.00;99161.09;5022307;28;20030;-73
2023/08/02 06:48:45;;;;;;;4.55;4.10;;;;;;;14.49;100.00;99150.66;5021552;28;20081;-73
2023/08/02 06:51:11;;;;;;;7.07;4.78;;;;;;;14.49;100.00;99147.97;5036538;28;20029;-74
2023/08/02 06:53:37;;;;;;;5.75;4.85;;;;;;;14.52;100.00;99147.69;5029837;28;20030;-74
2023/08/02 06:56:13;;;;;;;6.43;5.18;;;;;;;14.54;100.00;99129.63;5020093;28;20028;-72
2023/08/02 06:58:40;;;;;;;4.90;4.43;;;;;;;14.54;100.00;99129.63;5020283;28;20499;-72
2023/08/02 07:01:31;;;;;;;5.60;4.45;;;;;;;14.53;100.00;99125.28;5015958;28;20145;-69
2023/08/02 07:03:57;;;;;;;5.30;4.55;;;;;;;14.51;100.00;99104.03;5022702;28;20049;-70
2023/08/02 07:06:22;;;;;;;4.95;4.13;;;;;;;14.51;100.00;99104.03;5022661;28;20025;-69
2023/08/02 07:08:48;;;;;;;4.90;4.40;;;;;;;14.53;100.00;99103.88;5033418;28;20027;-70
2023/08/02 07:11:14;;;;;;;5.88;4.70;;;;;;;14.51;100.00;99084.44;5024222;28;20025;-71
2023/08/02 07:13:44;;;;;;;5.40;4.07;;;;;;;14.49;100.00;99087.25;5029760;28;20027;-69
2023/08/02 07:16:09;;;;;;;6.03;5.10;;;;;;;14.53;100.00;99098.50;5029217;28;20059;-70
2023/08/02 07:18:35;;;;;;;4.65;4.25;;;;;;;14.52;100.00;99096.84;5021360;28;20495;-70
2023/08/02 07:21:07;;;;;;;5.18;4.43;;;;;;;14.58;100.00;99088.19;5026300;28;20027;-71
2023/08/02 07:23:34;;;;;;;6.72;4.65;;;;;;;14.61;100.00;99082.56;5027241;28;20037;-71
2023/08/02 07:25:59;;;;;;;5.22;4.40;;;;;;;14.64;100.00;99084.97;5034220;28;20068;-71
2023/08/02 07:28:24;;;;;;;5.82;5.22;;;;;;;14.69;100.00;99070.13;5026751;28;20033;-71
2023/08/02 07:30:50;;;;;;;6.15;5.18;;;;;;;14.79;100.00;99075.44;5026915;28;20113;-71
2023/08/02 07:33:15;;;;;;;6.00;5.43;;;;;;;14.82;100.00;99072.47;5034676;28;20411;-69
2023/08/02 07:35:41;;;;;;;6.00;5.30;;;;;;;14.88;100.00;99071.88;5023947;28;20064;-69
2023/08/02 07:38:06;;;;;;;7.55;5.72;;;;;;;14.93;100.00;99074.13;5022709;28;20371;-69
2023/08/02 07:40:31;;;;;;;6.70;6.10;;;;;;;14.96;100.00;99071.13;5015716;28;20029;-67
2023/08/02 07:42:57;;;;;;;6.75;6.15;;;;;;;15.02;100.00;99064.34;5025265;28;20080;-67
2023/08/02 07:45:22;;;;;;;6.82;6.13;;;;;;;15.12;100.00;99046.34;5030565;28;20040;-67
2023/08/02 07:47:48;;;;;;;7.95;7.05;;;;;;;15.24;100.00;99044.31;5025070;28;20052;-66
2023/08/02 07:50:13;;;;;;;7.68;6.88;;;;;;;15.30;100.00;99036.53;5029879;28;20031;-67
2023/08/02 07:52:38;;;;;;;8.00;6.85;;;;;;;15.44;100.00;99030.63;5015853;28;20495;-67
2023/08/02 07:55:04;;;;;;;6.97;6.38;;;;;;;15.50;100.00;99036.34;5026064;28;20045;-66
2023/08/02 07:57:34;;;;;;;8.27;6.72;;;;;;;15.49;100.00;99022.09;5023200;28;20491;-66
2023/08/02 08:00:00;;;;;;;6.60;5.90;;;;;;;15.43;100.00;99020.91;5027630;28;20068;-66
2023/08/02 08:02:26;;;;;;;9.98;7.60;;;;;;;15.49;100.00;99023.94;5022600;28;20080;-66
2023/08/02 08:04:52;;;;;;;6.63;5.93;;;;;;;15.47;100.00;99017.88;5020195;28;20498;-67
2023/08/02 08:07:18;;;;;;;6.88;4.97;;;;;;;15.47;100.00;99007.16;5026867;28;20069;-66
2023/08/02 08:09:43;;;;;;;6.40;5.13;;;;;;;15.51;100.00;99011.22;5019034;28;20052;-66
2023/08/02 08:12:09;;;;;;;5.20;4.28;;;;;;;15.54;100.00;99010.91;5025561;28;20449;-67
2023/08/02 08:14:34;;;;;;;5.05;4.50;;;;;;;15.63;100.00;98997.44;5036195;28;20448;-67
2023/08/02 08:17:00;;;;;;;4.57;3.85;;;;;;;15.71;100.00;99001.19;5020678;28;20029;-68
2023/08/02 08:19:27;;;;;;;5.22;4.00;;;;;;;15.77;100.00;98995.22;5023482;28;20032;-67
2023/08/02 08:21:53;;;;;;;3.65;3.30;;;;;;;15.78;100.00;98984.34;5024674;28;20032;-68
2023/08/02 08:24:19;;;;;;;3.55;3.25;;;;;;;15.88;100.00;98985.09;5025842;28;20511;-67
2023/08/02 08:26:45;;;;;;;4.20;3.47;;;;;;;15.93;100.00;98984.63;5020281;28;20029;-67
2023/08/02 08:29:10;;;;;;;3.65;2.78;;;;;;;15.94;100.00;98987.13;5023026;28;20033;-67
2023/08/02 08:31:37;;;;;;;3.47;3.00;;;;;;;16.02;100.00;98986.34;5020249;28;20045;-69
2023/08/02 08:34:03;;;;;;;4.32;2.88;;;;;;;16.08;100.00;98976.81;5023051;28;20083;-68
2023/08/02 08:36:31;;;;;;;3.22;2.40;;;;;;;16.14;100.00;98977.03;5021302;28;20049;-68
2023/08/02 08:38:57;;;;;;;2.50;2.30;;;;;;;16.09;100.00;98986.53;5023848;28;20510;-68
2023/08/02 08:41:23;;;;;;;2.97;2.17;;;;;;;16.10;100.00;98985.56;5010817;28;20052;-68
2023/08/02 08:43:49;;;;;;;2.00;1.90;;;;;;;16.13;100.00;98972.63;5024634;28;20022;-69
2023/08/02 08:46:15;;;;;;;3.72;2.10;;;;;;;16.21;100.00;98976.38;5022177;28;20462;-68
2023/08/02 08:48:41;;;;;;;2.85;2.15;;;;;;;16.20;100.00;98967.50;5021947;28;20179;-69
2023/08/02 08:51:09;;;;;;;2.40;1.80;;;;;;;16.30;100.00;98978.97;5020889;28;20045;-68
2023/08/02 08:53:36;;;;;;;2.47;2.08;;;;;;;16.32;100.00;98976.94;5018271;28;20557;-68
2023/08/02 08:56:10;;;;;;;2.28;2.08;;;;;;;16.42;100.00;98966.09;5023526;28;20044;-67
2023/08/02 08:58:37;;;;;;;2.88;2.20;;;;;;;16.56;100.00;98964.66;5023362;28;20104;-68
2023/08/02 09:01:04;;;;;;;1.92;1.77;;;;;;;16.55;100.00;98965.63;5020977;28;20504;-67
2023/08/02 09:03:30;;;;;;;1.75;1.65;;;;;;;16.50;100.00;98952.69;5020758;28;20192;-68
2023/08/02 09:05:59;;;;;;;1.73;1.63;;;;;;;16.57;100.00;98969.00;5021590;28;20025;-70
2023/08/02 09:08:25;;;;;;;1.95;1.85;;;;;;;16.70;100.00;98961.34;5019346;28;20602;-69
2023/08/02 09:10:52;;;;;;;2.17;1.98;;;;;;;16.71;100.00;98949.56;5019863;28;20330;-68
2023/08/02 09:13:24;;;;;;;2.05;1.95;;;;;;;16.71;100.00;98941.50;5023279;28;20059;-68
2023/08/02 09:16:09;;;;;;;1.92;1.77;;;;;;;16.93;100.00;98937.44;5020177;28;20352;-68
2023/08/02 09:18:41;;;;;;;2.33;2.13;;;;;;;17.13;100.00;98929.88;5017774;28;20490;-69
2023/08/02 09:21:08;;;;;;;2.05;1.85;;;;;;;17.14;100.00;98923.50;5029904;28;20036;-70
2023/08/02 09:23:34;;;;;;;2.08;1.98;;;;;;;17.45;100.00;98914.78;5025174;28;20527;-69
2023/08/02 09:26:29;;;;;;;2.47;2.05;;;;;;;17.84;100.00;98913.06;5023338;28;20044;-69
2023/08/02 09:29:06;;;;;;;2.17;2.08;;;;;;;18.00;100.00;98914.88;5009249;28;20478;-70
2023/08/02 09:31:36;;;;;;;2.50;2.30;;;;;;;18.47;100.00;98902.41;5025703;28;20029;-68
2023/08/02 09:34:02;;;;;;;2.75;2.55;;;;;;;19.09;100.00;98892.44;5019683;28;20082;-69
2023/08/02 09:36:33;;;;;;;2.15;1.95;;;;;;;19.41;100.00;98895.91;5017613;28;20099;-69
2023/08/02 09:39:01;;;;;;;1.52;1.40;;;;;;;19.50;100.00;98896.69;5017845;28;20025;-69
2023/08/02 09:41:27;;;;;;;1.50;1.40;;;;;;;19.70;100.00;98895.19;5020695;28;20426;-68
2023/08/02 09:43:53;;;;;;;1.85;1.10;;;;;;;20.19;100.00;98881.16;5020016;28;20044;-69
2023/08/02 09:46:36;;;;;;;1.40;1.30;;;;;;;20.16;100.00;98889.63;5019651;28;20033;-68
2023/08/02 09:49:16;;;;;;;1.30;1.00;;;;;;;20.08;100.00;98887.00;5017290;28;20049;-69
2023/08/02 09:51:43;;;;;;;1.02;1.02;;;;;;;20.06;100.00;98886.34;5017732;28;20523;-69
2023/08/02 09:54:10;;;;;;;1.20;1.10;;;;;;;20.63;100.00;98886.50;5020615;28;20427;-69
2023/08/02 09:56:37;;;;;;;1.55;1.27;;;;;;;20.41;100.00;98895.56;5020964;28;20026;-70
2023/08/02 09:59:04;;;;;;;0.90;0.90;;;;;;;19.89;100.00;98897.31;5022956;28;20135;-69
2023/08/02 10:01:31;;;;;;;1.25;0.95;;;;;;;19.67;100.00;98887.44;5020341;28;20268;-71
2023/08/02 10:04:03;;;;;;;1.17;1.10;;;;;;;20.10;100.00;98887.66;5012191;28;20233;-70
2023/08/02 10:06:37;;;;;;;1.20;1.10;;;;;;;20.45;100.00;98885.22;5033129;28;20096;-69
2023/08/02 10:09:05;;;;;;;1.27;1.02;;;;;;;20.67;100.00;98873.44;5026360;28;20029;-70
2023/08/02 10:11:42;;;;;;;1.30;0.93;;;;;;;21.61;100.00;98874.16;5011362;28;20136;-70
2023/08/02 10:14:09;;;;;;;0.90;0.80;;;;;;;22.43;100.00;98885.28;5015577;28;20028;-70
2023/08/02 10:16:35;;;;;;;2.45;1.20;;;;;;;22.53;100.00;98878.44;5031592;28;20017;-71
2023/08/02 10:19:01;;;;;;;1.40;0.90;;;;;;;22.26;100.00;98863.09;5024991;28;20090;-70
2023/08/02 10:21:30;;;;;;;1.02;0.85;;;;;;;22.33;100.00;98855.84;5023569;28;20033;-70
2023/08/02 10:23:58;;;;;;;0.80;0.80;;;;;;;22.02;100.00;98846.28;5014777;28;20029;-70
2023/08/02 10:26:24;;;;;;;0.85;0.70;;;;;;;22.18;100.00;98861.41;5024519;28;20142;-70
2023/08/02 10:28:50;;;;;;;1.95;0.90;;;;;;;22.43;100.00;98848.16;5037739;28;20301;-70
2023/08/02 10:31:17;;;;;;;0.80;0.80;;;;;;;23.75;100.00;98842.09;5015550;28;20120;-70
2023/08/02 10:33:42;;;;;;;0.93;0.60;;;;;;;24.34;93.65;98843.81;5021731;28;20036;-72
2023/08/02 10:36:08;;;;;;;0.93;0.90;;;;;;;24.34;95.12;98834.81;5018866;28;20033;-71
2023/08/02 10:38:39;;;;;;;1.10;0.77;;;;;;;24.45;94.53;98849.63;5024582;28;20109;-70
2023/08/02 10:41:13;;;;;;;0.98;0.90;;;;;;;23.46;94.15;98835.22;5023038;28;20037;-72
2023/08/02 10:43:54;;;;;;;1.63;0.88;;;;;;;22.95;100.00;98818.69;5025521;28;20110;-72
2023/08/02 10:46:32;;;;;;;0.70;0.70;;;;;;;22.57;100.00;98811.06;5029512;28;20041;-71
2023/08/02 10:49:09;;;;;;;0.90;0.80;;;;;;;22.60;100.00;98816.94;5031387;28;20076;-71
2023/08/02 10:51:38;;;;;;;0.85;0.85;;;;;;;22.85;98.06;98811.75;5016555;28;20017;-71
2023/08/02 10:54:12;;;;;;;0.90;0.90;;;;;;;23.41;97.48;98813.28;5024251;28;20526;-71
2023/08/02 10:56:53;;;;;;;0.80;0.80;;;;;;;23.73;95.16;98817.03;5030772;28;20021;-70
2023/08/02 10:59:25;;;;;;;1.17;1.00;;;;;;;23.34;95.99;98810.56;5020246;28;20210;-71
2023/08/02 11:02:01;;;;;;;0.90;0.80;;;;;;;22.79;97.55;98801.75;5028836;28;20030;-71
2023/08/02 11:04:29;;;;;;;1.00;1.00;;;;;;;22.47;100.00;98769.97;5027079;28;20037;-71
2023/08/02 11:06:54;;;;;;;1.33;0.85;;;;;;;22.42;100.00;98748.91;5024481;28;20179;-71
2023/08/02 11:09:32;;;;;;;1.65;1.20;;;;;;;22.38;100.00;98764.75;5024245;28;20272;-71
2023/08/02 11:12:11;;;;;;;0.90;0.90;;;;;;;22.09;100.00;98767.75;5025182;28;20572;-71
2023/08/02 11:14:41;;;;;;;1.15;1.05;;;;;;;21.40;100.00;98774.03;5024836;28;20030;-71
2023/08/02 11:17:06;;;;;;;2.17;1.70;;;;;;;20.62;100.00;98765.91;5011285;28;20315;-69
2023/08/02 11:19:33;;;;;;;1.52;1.42;;;;;;;20.07;100.00;98785.41;5019226;28;20104;-67
2023/08/02 11:22:01;;;;;;;1.50;1.40;;;;;;;19.78;100.00;98779.03;5024219;28;20067;-66
2023/08/02 11:24:27;;;;;;;2.05;1.40;;;;;;;19.60;100.00;98767.72;5023203;28;20037;-68